createdAt,value
2022-12-08T00:00:11.943Z,13.50
2022-12-08T00:03:00.715Z,15.20
2022-12-08T00:05:48.854Z,12.40
2022-12-08T00:08:36.055Z,11.70
2022-12-08T00:11:04.755Z,11.80
2022-12-08T00:13:33.433Z,10.20
2022-12-08T00:16:02.318Z,16.40
2022-12-08T00:18:30.794Z,14.80
2022-12-08T00:21:00.194Z,13.00
2022-12-08T00:23:29.196Z,10.00
2022-12-08T00:25:57.666Z,11.10
2022-12-08T00:28:26.359Z,13.80
2022-12-08T00:30:55.138Z,12.70
2022-12-08T00:33:24.035Z,12.60
2022-12-08T00:35:52.924Z,14.30
2022-12-08T00:38:22.135Z,13.80
2022-12-08T00:40:50.807Z,13.00
2022-12-08T00:43:19.494Z,11.40
2022-12-08T00:45:48.365Z,14.00
2022-12-08T00:48:17.195Z,16.20
2022-12-08T00:50:45.954Z,16.40
2022-12-08T00:53:14.654Z,15.30
2022-12-08T00:55:43.841Z,16.40
2022-12-08T00:58:12.637Z,14.90
2022-12-08T01:00:42.832Z,16.90
2022-12-08T01:03:12.311Z,16.50
2022-12-08T01:05:41.355Z,14.90
2022-12-08T01:08:10.211Z,14.90
2022-12-08T01:10:40.050Z,15.30
2022-12-08T01:13:08.528Z,16.40
2022-12-08T01:15:37.733Z,16.30
2022-12-08T01:18:06.453Z,13.80
2022-12-08T01:20:35.112Z,15.70
2022-12-08T01:23:03.997Z,16.50
2022-12-08T01:25:35.857Z,14.00
2022-12-08T01:28:04.954Z,14.80
2022-12-08T01:30:33.760Z,14.60
2022-12-08T01:33:02.834Z,12.70
2022-12-08T01:35:31.925Z,14.00
2022-12-08T01:38:00.403Z,13.00
2022-12-08T01:40:29.091Z,14.00
2022-12-08T01:42:57.799Z,15.30
2022-12-08T01:45:31.794Z,13.90
2022-12-08T01:48:11.713Z,13.60
2022-12-08T01:50:41.324Z,13.00
2022-12-08T01:53:13.174Z,13.40
2022-12-08T01:55:49.524Z,14.30
2022-12-08T01:58:28.944Z,15.90
2022-12-08T02:00:57.545Z,14.60
2022-12-08T02:03:34.858Z,15.00
2022-12-08T02:06:04.274Z,14.40
2022-12-08T02:08:33.276Z,12.90
2022-12-08T02:11:01.850Z,10.60
2022-12-08T02:13:32.992Z,14.60
2022-12-08T02:16:20.162Z,11.00
2022-12-08T02:22:14.925Z,11.30
2022-12-08T02:24:55.915Z,13.50
2022-12-08T02:27:34.420Z,14.20
2022-12-08T02:30:34.926Z,13.30
2022-12-08T02:33:09.496Z,13.40
2022-12-08T02:36:01.317Z,11.30
2022-12-08T02:38:44.236Z,11.50
2022-12-08T02:41:31.968Z,13.50
2022-12-08T02:44:09.554Z,13.00
2022-12-08T02:46:47.158Z,12.40
2022-12-08T02:49:17.066Z,13.00
2022-12-08T02:51:45.655Z,11.00
2022-12-08T02:54:15.576Z,12.60
2022-12-08T02:57:19.775Z,10.20
2022-12-08T03:00:07.680Z,11.70
2022-12-08T03:02:58.291Z,12.40
2022-12-08T03:05:54.947Z,10.80
2022-12-08T03:08:48.836Z,11.00
2022-12-08T03:11:22.955Z,10.00
2022-12-08T03:13:58.044Z,10.20
2022-12-08T03:16:31.060Z,11.30
2022-12-08T03:19:04.559Z,10.40
2022-12-08T03:21:34.683Z,11.30
2022-12-08T03:24:07.869Z,12.10
2022-12-08T03:26:47.316Z,11.00
2022-12-08T03:29:16.093Z,10.70
2022-12-08T03:32:23.701Z,12.10
2022-12-08T03:34:53.935Z,10.20
2022-12-08T03:37:22.810Z,9.30
2022-12-08T03:39:51.618Z,12.50
2022-12-08T03:42:20.391Z,12.60
2022-12-08T03:44:48.996Z,10.50
2022-12-08T03:47:17.752Z,10.80
2022-12-08T03:49:46.347Z,12.40
2022-12-08T03:52:14.936Z,13.80
2022-12-08T03:54:43.503Z,12.00
2022-12-08T03:57:12.197Z,12.20
2022-12-08T03:59:40.896Z,12.10
2022-12-08T04:02:09.733Z,14.00
2022-12-08T04:04:39.706Z,11.80
2022-12-08T04:07:08.267Z,11.70
2022-12-08T04:09:37.176Z,10.60
2022-12-08T04:12:06.395Z,10.40
2022-12-08T04:14:35.141Z,12.50
2022-12-08T04:17:04.044Z,11.60
2022-12-08T04:19:32.919Z,11.70
2022-12-08T04:22:01.398Z,12.20
2022-12-08T04:24:29.982Z,11.10
2022-12-08T04:26:58.900Z,11.80
2022-12-08T04:29:27.675Z,12.80
2022-12-08T04:31:56.437Z,11.40
2022-12-08T04:34:26.308Z,12.00
2022-12-08T04:36:54.842Z,12.00
2022-12-08T04:39:23.636Z,11.60
2022-12-08T04:41:53.238Z,13.90
2022-12-08T04:44:22.035Z,14.40
2022-12-08T04:46:50.754Z,16.60
2022-12-08T04:49:20.273Z,13.30
2022-12-08T04:51:49.435Z,12.40
2022-12-08T04:54:18.029Z,12.00
2022-12-08T04:56:46.701Z,14.00
2022-12-08T04:59:15.264Z,13.70
2022-12-08T05:01:44.135Z,12.50
2022-12-08T05:04:13.049Z,11.60
2022-12-08T05:06:41.637Z,12.90
2022-12-08T05:09:10.623Z,14.40
2022-12-08T05:11:48.404Z,9.00
2022-12-08T05:14:19.494Z,12.50
2022-12-08T05:16:48.496Z,12.20
2022-12-08T05:19:18.376Z,11.00
2022-12-08T05:21:47.260Z,9.70
2022-12-08T05:24:15.855Z,14.10
2022-12-08T05:26:44.435Z,13.00
2022-12-08T05:29:13.134Z,15.60
2022-12-08T05:31:42.021Z,16.20
2022-12-08T05:34:10.916Z,12.60
2022-12-08T05:36:39.695Z,12.40
2022-12-08T05:39:09.143Z,11.90
2022-12-08T05:41:37.776Z,11.40
2022-12-08T05:44:06.665Z,12.00
2022-12-08T05:46:35.448Z,12.50
2022-12-08T05:49:04.487Z,11.90
2022-12-08T05:51:33.456Z,11.80
2022-12-08T05:54:02.636Z,12.30
2022-12-08T05:56:31.437Z,14.50
2022-12-08T05:59:00.735Z,11.40
2022-12-08T06:01:31.412Z,13.30
2022-12-08T06:04:01.735Z,11.00
2022-12-08T06:06:30.956Z,12.90
2022-12-08T06:08:59.757Z,13.00
2022-12-08T06:11:30.850Z,13.40
2022-12-08T06:14:00.023Z,12.40
2022-12-08T06:16:29.267Z,11.70
2022-12-08T06:18:59.335Z,13.30
2022-12-08T06:21:27.815Z,12.40
2022-12-08T06:23:56.815Z,13.70
2022-12-08T06:26:25.696Z,13.20
2022-12-08T06:28:54.698Z,12.60
2022-12-08T06:31:26.229Z,13.80
2022-12-08T06:33:55.956Z,12.60
2022-12-08T06:36:26.853Z,13.10
2022-12-08T06:38:56.476Z,14.40
2022-12-08T06:41:25.395Z,14.40
2022-12-08T06:43:58.067Z,12.70
2022-12-08T06:46:27.440Z,13.20
2022-12-08T06:48:56.450Z,13.70
2022-12-08T06:51:26.476Z,16.00
2022-12-08T06:53:55.565Z,13.40
2022-12-08T06:56:28.457Z,11.30
2022-12-08T06:58:57.136Z,11.80
2022-12-08T07:01:26.455Z,11.10
2022-12-08T07:03:55.022Z,13.30
2022-12-08T07:06:25.134Z,10.00
2022-12-08T07:08:54.042Z,11.60
2022-12-08T07:11:23.019Z,12.10
2022-12-08T07:13:51.805Z,13.90
2022-12-08T07:16:20.778Z,12.50
2022-12-08T07:18:50.822Z,13.00
2022-12-08T07:21:19.603Z,11.20
2022-12-08T07:23:54.220Z,12.30
2022-12-08T07:26:27.217Z,14.20
2022-12-08T07:28:56.417Z,11.60
2022-12-08T07:31:26.214Z,11.40
2022-12-08T07:33:57.511Z,13.90
2022-12-08T07:36:26.677Z,12.40
2022-12-08T07:38:55.257Z,13.60
2022-12-08T07:41:27.021Z,13.40
2022-12-08T07:43:57.059Z,12.80
2022-12-08T07:46:27.141Z,14.40
2022-12-08T07:48:58.168Z,13.70
2022-12-08T07:51:28.139Z,13.60
2022-12-08T07:53:57.118Z,14.40
2022-12-08T07:56:26.433Z,14.50
2022-12-08T07:58:56.438Z,13.50
2022-12-08T08:01:29.055Z,11.90
2022-12-08T08:04:02.230Z,12.20
2022-12-08T08:06:33.081Z,11.10
2022-12-08T08:09:01.900Z,13.00
2022-12-08T08:11:31.098Z,11.90
2022-12-08T08:14:00.003Z,9.80
2022-12-08T08:16:33.458Z,14.20
2022-12-08T08:19:05.661Z,11.10
2022-12-08T08:21:45.417Z,10.10
2022-12-08T08:24:15.520Z,11.70
2022-12-08T08:26:45.994Z,9.90
2022-12-08T08:29:15.986Z,11.40
2022-12-08T08:31:46.328Z,10.70
2022-12-08T08:34:16.114Z,12.80
2022-12-08T08:36:45.749Z,11.20
2022-12-08T08:39:15.005Z,11.90
2022-12-08T08:41:44.062Z,11.60
2022-12-08T08:44:15.432Z,11.10
2022-12-08T08:46:44.306Z,11.80
2022-12-08T08:49:13.720Z,11.20
2022-12-08T08:51:43.209Z,10.50
2022-12-08T08:54:12.659Z,11.30
2022-12-08T08:56:42.171Z,11.30
2022-12-08T08:59:11.760Z,11.50
2022-12-08T09:01:40.581Z,11.40
2022-12-08T09:04:10.496Z,11.30
2022-12-08T09:06:39.942Z,12.80
2022-12-08T09:09:08.877Z,15.10
2022-12-08T09:11:38.376Z,12.10
2022-12-08T09:14:07.898Z,11.70
2022-12-08T09:16:41.910Z,11.50
2022-12-08T09:19:11.775Z,12.20
2022-12-08T09:21:41.094Z,10.50
2022-12-08T09:24:16.136Z,13.10
2022-12-08T09:26:45.632Z,10.10
2022-12-08T09:29:15.157Z,10.20
2022-12-08T09:31:44.460Z,11.50
2022-12-08T09:34:14.770Z,13.10
2022-12-08T09:36:43.748Z,10.10
2022-12-08T09:39:12.358Z,11.20
2022-12-08T09:41:48.473Z,10.70
2022-12-08T09:44:35.103Z,10.60
2022-12-08T09:47:07.413Z,11.60
2022-12-08T09:50:03.213Z,11.00
2022-12-08T09:52:39.150Z,11.40
2022-12-08T09:55:32.316Z,11.10
2022-12-08T09:58:03.238Z,11.90
2022-12-08T10:00:32.663Z,12.30
2022-12-08T10:03:01.858Z,12.10
2022-12-08T10:05:33.838Z,14.30
2022-12-08T10:08:28.291Z,12.00
2022-12-08T10:11:09.685Z,11.10
2022-12-08T10:13:52.301Z,10.00
2022-12-08T10:16:41.366Z,10.70
2022-12-08T10:19:15.562Z,10.20
2022-12-08T10:21:45.084Z,10.40
2022-12-08T10:24:19.604Z,11.40
2022-12-08T10:26:50.047Z,9.50
2022-12-08T10:29:19.437Z,12.30
2022-12-08T10:31:48.724Z,9.70
2022-12-08T10:34:21.458Z,11.30
2022-12-08T10:36:50.406Z,12.60
2022-12-08T10:39:40.930Z,10.40
2022-12-08T10:42:20.446Z,9.70
2022-12-08T10:45:04.112Z,10.90
2022-12-08T10:47:38.364Z,11.20
2022-12-08T10:50:13.037Z,10.20
2022-12-08T10:52:42.028Z,8.90
2022-12-08T10:55:19.291Z,10.70
2022-12-08T10:57:51.572Z,12.10
2022-12-08T11:00:28.729Z,11.40
2022-12-08T11:03:01.277Z,13.40
2022-12-08T11:05:33.712Z,11.20
2022-12-08T11:08:04.913Z,12.50
2022-12-08T11:10:43.281Z,11.40
2022-12-08T11:13:24.599Z,10.90
2022-12-08T11:15:55.590Z,12.90
2022-12-08T11:18:43.440Z,11.70
2022-12-08T11:21:17.376Z,10.70
2022-12-08T11:23:51.225Z,14.50
2022-12-08T11:26:30.536Z,13.00
2022-12-08T11:29:01.008Z,11.10
2022-12-08T11:31:37.604Z,12.80
2022-12-08T11:34:07.593Z,10.70
2022-12-08T11:36:38.049Z,13.30
2022-12-08T11:39:06.911Z,12.10
2022-12-08T11:41:42.556Z,11.60
2022-12-08T11:44:22.404Z,12.30
2022-12-08T11:46:58.911Z,12.20
2022-12-08T11:52:23.275Z,11.20
2022-12-08T11:55:36.967Z,12.60
2022-12-08T11:58:42.476Z,12.00
2022-12-08T12:01:21.479Z,9.90
2022-12-08T12:04:13.906Z,7.80
2022-12-08T12:07:01.769Z,12.00
2022-12-08T12:09:45.420Z,9.70
2022-12-08T12:12:40.247Z,11.00
2022-12-08T12:15:24.562Z,10.20
2022-12-08T12:18:06.138Z,11.10
2022-12-08T12:20:47.038Z,13.70
2022-12-08T12:23:22.196Z,13.00
2022-12-08T12:26:02.653Z,12.30
2022-12-08T12:28:53.946Z,11.50
2022-12-08T12:31:45.456Z,12.40
2022-12-08T12:34:31.633Z,11.00
2022-12-08T12:37:26.042Z,10.00
2022-12-08T12:40:03.234Z,11.60
2022-12-08T12:42:52.094Z,8.80
2022-12-08T12:45:21.273Z,9.90
2022-12-08T12:47:58.161Z,11.80
2022-12-08T12:50:37.806Z,9.60
2022-12-08T12:53:19.497Z,11.60
2022-12-08T12:56:03.059Z,15.00
2022-12-08T12:58:32.126Z,13.30
2022-12-08T13:01:13.785Z,11.50
2022-12-08T13:04:13.156Z,11.50
2022-12-08T13:06:45.344Z,12.40
2022-12-08T13:09:27.797Z,10.80
2022-12-08T13:11:59.376Z,12.60
2022-12-08T13:14:34.048Z,14.30
2022-12-08T13:17:07.849Z,11.00
2022-12-08T13:19:37.847Z,10.90
2022-12-08T13:22:45.383Z,13.60
2022-12-08T13:25:48.522Z,11.10
2022-12-08T13:28:30.593Z,15.40
2022-12-08T13:31:04.494Z,13.70
2022-12-08T13:33:39.908Z,11.50
2022-12-08T13:36:19.408Z,13.20
2022-12-08T13:38:51.297Z,13.80
2022-12-08T13:41:23.494Z,10.80
2022-12-08T13:59:23.720Z,13.00
2022-12-08T14:01:52.961Z,11.40
2022-12-08T14:05:09.345Z,13.20
2022-12-08T14:07:12.670Z,13.30
2022-12-08T14:09:42.860Z,11.60
2022-12-08T14:12:22.074Z,12.50
2022-12-08T14:15:03.093Z,12.50
2022-12-08T14:17:35.923Z,14.60
2022-12-08T14:20:13.722Z,15.10
2022-12-08T14:22:42.613Z,13.70
2022-12-08T14:25:18.673Z,15.60
2022-12-08T14:27:48.788Z,14.30
2022-12-08T14:30:25.683Z,15.60
2022-12-08T14:33:02.030Z,12.50
2022-12-08T14:35:37.185Z,15.20
2022-12-08T14:38:21.326Z,17.80
2022-12-08T14:41:08.021Z,16.20
2022-12-08T14:43:37.324Z,19.70
2022-12-08T14:46:22.720Z,15.70
2022-12-08T14:48:54.004Z,15.40
2022-12-08T14:51:32.775Z,15.30
2022-12-08T14:54:14.784Z,16.00
2022-12-08T14:56:55.081Z,18.30
2022-12-08T14:59:32.987Z,18.10
2022-12-08T15:02:20.050Z,16.70
2022-12-08T15:04:56.012Z,18.00
2022-12-08T15:07:28.268Z,19.80
2022-12-08T15:10:10.787Z,18.70
2022-12-08T15:12:40.170Z,21.40
2022-12-08T15:15:09.905Z,17.00
2022-12-08T15:17:44.991Z,16.50
2022-12-08T15:20:33.195Z,16.90
2022-12-08T15:23:04.637Z,16.20
2022-12-08T15:25:33.735Z,14.90
2022-12-08T15:28:03.224Z,13.20
2022-12-08T15:30:32.436Z,14.30
2022-12-08T15:33:01.310Z,16.10
2022-12-08T15:35:30.404Z,18.10
2022-12-08T15:38:00.436Z,21.50
2022-12-08T15:40:29.524Z,19.40
2022-12-08T15:42:58.512Z,18.60
2022-12-08T15:45:31.786Z,19.60
2022-12-08T15:48:01.808Z,23.70
2022-12-08T15:50:31.527Z,20.50
2022-12-08T15:53:00.238Z,22.40
2022-12-08T15:55:31.089Z,20.70
2022-12-08T16:00:54.153Z,23.30
2022-12-08T16:09:24.468Z,20.50
2022-12-08T16:12:12.672Z,16.00
2022-12-08T16:17:35.233Z,20.70
2022-12-08T16:20:12.178Z,21.90
2022-12-08T16:22:54.492Z,19.50
2022-12-08T16:25:46.033Z,20.60
2022-12-08T16:28:52.068Z,21.70
2022-12-08T16:31:13.778Z,27.20
2022-12-08T16:33:44.214Z,22.80
2022-12-08T16:36:13.116Z,23.40
2022-12-08T16:38:43.551Z,22.20
2022-12-08T16:41:34.237Z,21.40
2022-12-08T16:44:05.627Z,23.00
2022-12-08T16:46:36.614Z,21.20
2022-12-08T16:49:06.574Z,21.00
2022-12-08T16:51:36.138Z,20.20
2022-12-08T16:54:05.559Z,18.70
2022-12-08T16:56:34.843Z,18.00
2022-12-08T16:59:04.262Z,17.80
2022-12-08T17:01:33.594Z,19.20
2022-12-08T17:06:53.276Z,16.80
2022-12-08T17:09:22.436Z,20.50
2022-12-08T17:11:56.551Z,16.50
2022-12-08T17:14:27.998Z,15.50
2022-12-08T17:16:57.088Z,13.50
2022-12-08T17:19:27.536Z,14.50
2022-12-08T17:21:56.625Z,15.80
2022-12-08T17:24:29.864Z,12.70
2022-12-08T17:27:04.746Z,13.40
2022-12-08T17:29:35.579Z,14.30
2022-12-08T17:32:05.103Z,17.30
2022-12-08T17:34:34.176Z,14.70
2022-12-08T17:37:03.604Z,13.90
2022-12-08T17:39:39.745Z,16.50
2022-12-08T17:42:09.793Z,15.60
2022-12-08T17:44:39.979Z,17.20
2022-12-08T17:47:09.390Z,15.70
2022-12-08T17:49:37.975Z,15.90
2022-12-08T17:52:08.016Z,18.70
2022-12-08T17:54:37.281Z,19.20
2022-12-08T17:57:07.000Z,17.70
2022-12-08T17:59:36.288Z,19.90
2022-12-08T18:02:05.753Z,17.40
2022-12-08T18:04:36.629Z,20.50
2022-12-08T18:07:08.552Z,17.20
2022-12-08T18:09:37.942Z,18.00
2022-12-08T18:12:09.298Z,18.80
2022-12-08T18:14:39.769Z,21.00
2022-12-08T18:17:10.179Z,20.50
2022-12-08T18:19:40.538Z,21.30
2022-12-08T18:22:11.382Z,25.20
2022-12-08T18:24:43.013Z,23.40
2022-12-08T18:27:12.212Z,21.50
2022-12-08T18:29:41.755Z,18.60
2022-12-08T18:32:13.767Z,18.40
2022-12-08T18:34:43.517Z,18.60
2022-12-08T18:37:12.892Z,22.70
2022-12-08T18:39:43.137Z,19.20
2022-12-08T18:42:30.736Z,18.20
2022-12-08T18:45:05.370Z,20.40
2022-12-08T18:47:37.945Z,23.80
2022-12-08T18:50:09.469Z,20.60
2022-12-08T18:52:44.856Z,16.30
2022-12-08T18:55:17.033Z,20.10
2022-12-08T18:57:48.044Z,18.20
2022-12-08T19:00:19.927Z,19.80
2022-12-08T19:02:50.801Z,18.80
2022-12-08T19:05:23.428Z,20.90
2022-12-08T19:07:54.183Z,24.70
2022-12-08T19:10:26.251Z,18.30
2022-12-08T19:13:00.249Z,19.30
2022-12-08T19:15:30.795Z,21.90
2022-12-08T19:18:01.494Z,17.70
2022-12-08T19:20:32.119Z,21.50
2022-12-08T19:23:07.249Z,19.90
2022-12-08T19:25:37.595Z,17.20
2022-12-08T19:28:08.648Z,16.90
2022-12-08T19:30:41.451Z,18.20
2022-12-08T19:33:12.344Z,21.00
2022-12-08T19:35:49.076Z,25.50
2022-12-08T19:38:31.369Z,19.30
2022-12-08T19:41:23.894Z,21.40
2022-12-08T19:44:13.445Z,18.80
2022-12-08T19:46:52.191Z,22.50
2022-12-08T19:49:24.167Z,28.70
2022-12-08T19:51:55.519Z,24.10
2022-12-08T19:54:32.984Z,22.70
2022-12-08T19:57:03.727Z,19.20
2022-12-08T19:59:41.293Z,22.80
2022-12-08T20:02:12.854Z,24.50
2022-12-08T20:04:43.479Z,22.90
2022-12-08T20:07:15.320Z,21.50
2022-12-08T20:09:45.388Z,19.30
2022-12-08T20:12:19.404Z,19.80
2022-12-08T20:14:49.786Z,19.20
2022-12-08T20:17:20.948Z,16.80
2022-12-08T20:19:51.623Z,17.50
2022-12-08T20:22:21.947Z,19.00
2022-12-08T20:24:59.414Z,17.70
2022-12-08T20:27:35.141Z,19.20
2022-12-08T20:30:05.315Z,15.00
2022-12-08T20:32:39.272Z,16.50
2022-12-08T20:35:10.408Z,16.00
2022-12-08T20:37:40.456Z,15.70
2022-12-08T20:40:11.431Z,20.00
2022-12-08T20:42:44.272Z,19.40
2022-12-08T20:45:16.259Z,24.60
2022-12-08T20:47:50.138Z,19.80
2022-12-08T20:50:20.834Z,20.30
2022-12-08T20:52:54.826Z,20.70
2022-12-08T20:55:26.713Z,21.00
2022-12-08T20:57:56.760Z,20.60
2022-12-08T21:00:28.798Z,18.50
2022-12-08T21:02:59.834Z,21.60
2022-12-08T21:05:30.191Z,19.90
2022-12-08T21:08:00.042Z,20.50
2022-12-08T21:10:29.510Z,19.80
2022-12-08T21:12:59.265Z,22.10
2022-12-08T21:15:30.294Z,22.20
2022-12-08T21:17:59.836Z,22.00
2022-12-08T21:20:28.636Z,22.50
2022-12-08T21:22:57.651Z,26.90
2022-12-08T21:25:26.673Z,21.50
2022-12-08T21:27:56.084Z,22.40
2022-12-08T21:30:25.187Z,24.20
2022-12-08T21:32:54.627Z,20.70
2022-12-08T21:35:24.279Z,20.40
2022-12-08T21:37:54.575Z,21.60
2022-12-08T21:40:24.149Z,21.70
2022-12-08T21:42:54.139Z,20.60
2022-12-08T21:45:23.888Z,19.50
2022-12-08T21:47:52.695Z,19.90
2022-12-08T21:50:22.471Z,19.10
2022-12-08T21:52:51.937Z,18.30
2022-12-08T21:55:21.928Z,22.40
2022-12-08T21:57:51.503Z,21.30
2022-12-08T22:00:21.629Z,22.70
2022-12-08T22:02:50.960Z,21.60
2022-12-08T22:05:20.604Z,22.80
2022-12-08T22:07:49.928Z,26.20
2022-12-08T22:10:21.451Z,20.30
2022-12-08T22:12:50.427Z,19.90
2022-12-08T22:15:21.457Z,21.20
2022-12-08T22:17:50.894Z,22.60
2022-12-08T22:20:20.092Z,21.60
2022-12-08T22:22:49.941Z,20.80
2022-12-08T22:25:19.188Z,20.20
2022-12-08T22:27:49.004Z,21.10
2022-12-08T22:30:18.363Z,19.40
2022-12-08T22:32:49.181Z,22.40
2022-12-08T22:35:18.692Z,20.40
2022-12-08T22:37:51.307Z,22.90
2022-12-08T22:40:21.246Z,22.60
2022-12-08T22:42:50.592Z,22.70
2022-12-08T22:45:20.077Z,22.20
2022-12-08T22:47:49.308Z,20.60
2022-12-08T22:50:19.121Z,23.10
2022-12-08T22:52:48.428Z,23.40
2022-12-08T22:55:17.960Z,21.10
2022-12-08T22:57:47.957Z,20.90
2022-12-08T23:00:19.079Z,22.20
2022-12-08T23:02:48.166Z,17.90
2022-12-08T23:05:17.911Z,20.60
2022-12-08T23:07:47.064Z,20.00
2022-12-08T23:10:16.090Z,23.40
2022-12-08T23:12:45.177Z,19.40
2022-12-08T23:15:13.920Z,22.40
2022-12-08T23:17:42.958Z,21.80
2022-12-08T23:20:12.962Z,22.10
2022-12-08T23:22:41.763Z,23.60
2022-12-08T23:25:10.430Z,21.80
2022-12-08T23:27:39.115Z,19.20
2022-12-08T23:30:09.368Z,17.80
2022-12-08T23:32:39.026Z,18.20
2022-12-08T23:35:08.603Z,18.70
2022-12-08T23:37:37.449Z,21.60
2022-12-08T23:40:07.716Z,18.50
2022-12-08T23:42:36.838Z,19.70
2022-12-08T23:45:08.550Z,21.20
2022-12-08T23:47:37.690Z,20.80
2022-12-08T23:50:07.925Z,18.40
2022-12-08T23:52:39.334Z,22.40
2022-12-08T23:55:09.440Z,20.90
2022-12-08T23:57:39.320Z,17.50
